Smith River, California
Current Conditions -  °F | °C
As of 12:56 AM on Tuesday 21 Oct 2014 (Local Time) from KCEC Reporting Station
Broken Clouds Broken Clouds  
Wind Chill: 56°   Ceiling: 7500
Heat Index: 56°   Visibility: 10mi
Dew Point: 51°   Wind: 15mph
Humidity: 84%   Direction: 160°SSE
Pressure: 30.02"   Gusts: NA
Location:  41.93°N, 124.15°W
Report Text: KCEC 210756Z AUTO 16013KT 10SM BKN075 13/11 A3002 RMK AO2 SLP164 T01330106 401780128
Loading
Personal Weather Stations






























Interactive Weather Map
Tropical Storm Tracking
New forecast layout! Learn more

10-Day Weather Forecast

Advertisements
Track Severe Weather on mobile